createdAt,value
2022-10-01T00:00:50.861Z,5.57
2022-10-01T00:03:17.799Z,5.80
2022-10-01T00:05:44.583Z,4.77
2022-10-01T00:08:13.351Z,5.20
2022-10-01T00:10:43.142Z,6.07
2022-10-01T00:13:10.156Z,9.57
2022-10-01T00:15:39.291Z,7.30
2022-10-01T00:18:05.888Z,6.80
2022-10-01T00:20:32.225Z,5.80
2022-10-01T00:22:58.642Z,8.47
2022-10-01T00:25:25.473Z,5.17
2022-10-01T00:27:51.857Z,6.50
2022-10-01T00:30:18.237Z,6.10
2022-10-01T00:32:44.571Z,4.87
2022-10-01T00:35:10.919Z,5.13
2022-10-01T00:37:37.723Z,6.20
2022-10-01T00:40:05.158Z,4.90
2022-10-01T00:42:31.691Z,4.60
2022-10-01T00:44:58.945Z,6.40
2022-10-01T00:47:28.207Z,4.83
2022-10-01T00:50:17.767Z,4.63
2022-10-01T00:52:47.299Z,5.53
2022-10-01T00:55:15.984Z,5.30
2022-10-01T00:57:43.530Z,4.60
2022-10-01T01:00:10.955Z,4.27
2022-10-01T01:02:37.495Z,6.93
2022-10-01T01:05:04.408Z,5.90
2022-10-01T01:07:31.674Z,4.77
2022-10-01T01:09:58.797Z,5.20
2022-10-01T01:12:45.297Z,6.20
2022-10-01T01:15:17.754Z,5.33
2022-10-01T01:17:51.853Z,4.43
2022-10-01T01:20:28.104Z,5.90
2022-10-01T01:23:02.496Z,5.17
2022-10-01T01:25:33.840Z,5.23
2022-10-01T01:28:19.103Z,4.80
2022-10-01T01:30:47.517Z,6.13
2022-10-01T01:33:19.007Z,4.60
2022-10-01T01:35:49.294Z,3.90
2022-10-01T01:38:21.070Z,4.07
2022-10-01T01:40:51.362Z,5.20
2022-10-01T01:43:20.820Z,3.73
2022-10-01T01:45:49.330Z,3.10
2022-10-01T01:48:15.756Z,3.17
2022-10-01T01:50:52.257Z,2.80
2022-10-01T01:53:19.495Z,2.30
2022-10-01T01:55:48.387Z,2.57
2022-10-01T01:58:15.348Z,2.37
2022-10-01T02:00:41.717Z,2.57
2022-10-01T02:03:09.117Z,3.87
2022-10-01T02:05:43.191Z,2.50
2022-10-01T02:08:12.722Z,3.10
2022-10-01T02:10:44.945Z,3.23
2022-10-01T02:13:40.844Z,3.13
2022-10-01T02:16:15.022Z,4.43
2022-10-01T02:18:58.923Z,2.90
2022-10-01T02:21:31.317Z,3.63
2022-10-01T02:23:58.221Z,3.17
2022-10-01T02:26:25.601Z,3.37
2022-10-01T02:28:53.989Z,2.30
2022-10-01T02:31:21.439Z,2.30
2022-10-01T02:33:49.088Z,2.07
2022-10-01T02:36:16.793Z,2.00
2022-10-01T02:38:44.739Z,2.37
2022-10-01T02:41:13.630Z,2.33
2022-10-01T02:43:47.391Z,2.00
2022-10-01T02:46:15.918Z,2.17
2022-10-01T02:48:42.746Z,1.90
2022-10-01T02:51:22.201Z,1.87
2022-10-01T02:53:52.707Z,5.47
2022-10-01T02:56:46.072Z,1.90
2022-10-01T02:59:15.081Z,1.50
2022-10-01T03:01:41.994Z,1.73
2022-10-01T03:04:08.367Z,1.67
2022-10-01T03:07:12.228Z,1.63
2022-10-01T03:13:25.920Z,1.67
2022-10-01T03:15:52.316Z,4.10
2022-10-01T03:18:18.702Z,2.60
2022-10-01T03:20:47.428Z,1.70
2022-10-01T03:23:13.776Z,3.60
2022-10-01T03:25:40.092Z,2.90
2022-10-01T03:28:06.525Z,2.33
2022-10-01T03:30:33.860Z,3.43
2022-10-01T03:33:00.190Z,2.20
2022-10-01T03:35:26.569Z,2.20
2022-10-01T03:37:53.053Z,2.00
2022-10-01T03:40:19.604Z,1.80
2022-10-01T03:42:45.943Z,2.07
2022-10-01T03:45:12.803Z,3.30
2022-10-01T03:47:39.359Z,2.50
2022-10-01T03:50:06.028Z,3.07
2022-10-01T03:52:32.396Z,4.33
2022-10-01T03:55:00.603Z,4.30
2022-10-01T03:57:26.970Z,3.30
2022-10-01T03:59:53.309Z,4.53
2022-10-01T04:02:20.304Z,3.97
2022-10-01T04:04:46.802Z,3.80
2022-10-01T04:07:13.160Z,3.80
2022-10-01T04:09:39.518Z,3.20
2022-10-01T04:12:05.967Z,3.07
2022-10-01T04:14:32.304Z,5.83
2022-10-01T04:16:59.042Z,4.30
2022-10-01T04:19:25.404Z,6.20
2022-10-01T04:21:51.754Z,5.40
2022-10-01T04:24:18.091Z,4.07
2022-10-01T04:26:44.453Z,4.33
2022-10-01T04:29:10.938Z,4.30
2022-10-01T04:31:37.816Z,3.50
2022-10-01T04:34:04.456Z,4.57
2022-10-01T04:36:31.065Z,5.13
2022-10-01T04:39:01.660Z,4.27
2022-10-01T04:41:30.677Z,3.87
2022-10-01T04:43:59.322Z,5.50
2022-10-01T04:46:25.804Z,4.40
2022-10-01T04:48:52.265Z,4.00
2022-10-01T04:51:18.630Z,4.60
2022-10-01T04:53:44.998Z,4.30
2022-10-01T04:56:11.365Z,4.70
2022-10-01T04:58:38.456Z,4.97
2022-10-01T05:01:04.893Z,4.50
2022-10-01T05:03:31.570Z,3.97
2022-10-01T05:05:57.997Z,4.00
2022-10-01T05:08:24.367Z,4.87
2022-10-01T05:10:50.746Z,5.13
2022-10-01T05:13:17.118Z,4.73
2022-10-01T05:15:44.704Z,4.37
2022-10-01T05:18:11.158Z,5.37
2022-10-01T05:20:38.284Z,3.90
2022-10-01T05:23:04.893Z,4.27
2022-10-01T05:25:31.566Z,3.70
2022-10-01T05:28:05.155Z,6.93
2022-10-01T05:30:32.078Z,4.40
2022-10-01T05:32:59.413Z,5.23
2022-10-01T05:35:26.220Z,4.03
2022-10-01T05:37:53.387Z,4.33
2022-10-01T05:40:19.954Z,5.40
2022-10-01T05:42:47.049Z,4.47
2022-10-01T05:45:13.660Z,4.37
2022-10-01T05:47:42.330Z,6.67
2022-10-01T05:50:09.088Z,4.97
2022-10-01T05:52:35.630Z,3.77
2022-10-01T05:55:02.007Z,3.33
2022-10-01T05:57:28.354Z,3.63
2022-10-01T05:59:54.732Z,3.73
2022-10-01T06:02:21.182Z,3.20
2022-10-01T06:04:47.610Z,4.77
2022-10-01T06:07:13.951Z,4.87
2022-10-01T06:09:40.306Z,4.20
2022-10-01T06:12:09.766Z,3.83
2022-10-01T06:14:36.115Z,3.80
2022-10-01T06:17:02.484Z,3.97
2022-10-01T06:19:28.829Z,4.17
2022-10-01T06:21:55.184Z,7.17
2022-10-01T06:24:21.554Z,4.53
2022-10-01T06:26:49.104Z,4.07
2022-10-01T06:29:15.475Z,4.20
2022-10-01T06:31:41.854Z,3.30
2022-10-01T06:34:08.336Z,3.23
2022-10-01T06:36:34.669Z,5.13
2022-10-01T06:39:01.109Z,3.33
2022-10-01T06:41:27.444Z,4.67
2022-10-01T06:43:53.901Z,2.90
2022-10-01T06:46:20.290Z,3.50
2022-10-01T06:48:46.789Z,3.73
2022-10-01T06:51:13.133Z,3.13
2022-10-01T06:53:39.480Z,2.80
2022-10-01T06:56:06.813Z,3.30
2022-10-01T06:58:33.537Z,2.60
2022-10-01T07:01:01.329Z,3.23
2022-10-01T07:03:28.234Z,2.30
2022-10-01T07:05:54.689Z,2.50
2022-10-01T07:08:22.396Z,2.63
2022-10-01T07:10:48.805Z,2.30
2022-10-01T07:13:20.842Z,2.60
2022-10-01T07:15:47.206Z,2.77
2022-10-01T07:18:13.783Z,2.80
2022-10-01T07:20:40.616Z,2.33
2022-10-01T07:23:08.164Z,2.07
2022-10-01T07:25:34.795Z,2.27
2022-10-01T07:28:02.233Z,2.23
2022-10-01T07:30:29.380Z,1.93
2022-10-01T07:32:55.799Z,2.40
2022-10-01T07:35:22.632Z,2.57
2022-10-01T07:37:52.011Z,2.10
2022-10-01T07:40:18.759Z,2.00
2022-10-01T07:42:55.242Z,3.03
2022-10-01T07:45:22.094Z,1.70
2022-10-01T07:47:55.736Z,2.17
2022-10-01T07:50:22.599Z,1.63
2022-10-01T07:52:56.164Z,1.77
2022-10-01T07:55:23.245Z,1.67
2022-10-01T07:57:53.498Z,1.67
2022-10-01T08:00:20.194Z,1.57
2022-10-01T08:02:47.392Z,2.30
2022-10-01T08:05:20.265Z,1.50
2022-10-01T08:07:47.451Z,1.40
2022-10-01T08:10:14.561Z,1.83
2022-10-01T08:12:42.686Z,1.83
2022-10-01T08:15:16.738Z,1.20
2022-10-01T08:17:43.475Z,1.33
2022-10-01T08:20:11.289Z,1.57
2022-10-01T08:22:41.895Z,2.03
2022-10-01T08:25:09.318Z,1.40
2022-10-01T08:27:35.718Z,1.40
2022-10-01T08:30:02.090Z,1.10
2022-10-01T08:32:28.871Z,1.20
2022-10-01T08:34:57.513Z,1.30
2022-10-01T08:37:24.700Z,1.77
2022-10-01T08:39:51.120Z,2.37
2022-10-01T08:42:17.432Z,1.87
2022-10-01T08:44:48.144Z,2.37
2022-10-01T08:47:18.145Z,1.40
2022-10-01T08:49:47.645Z,1.83
2022-10-01T08:52:19.666Z,1.50
2022-10-01T08:54:48.396Z,1.80
2022-10-01T08:57:17.481Z,1.30
2022-10-01T08:59:44.989Z,1.00
2022-10-01T09:02:22.513Z,2.43
2022-10-01T09:04:50.454Z,2.00
2022-10-01T09:07:30.280Z,1.33
2022-10-01T09:10:05.270Z,1.20
2022-10-01T09:12:39.697Z,0.90
2022-10-01T09:15:18.315Z,1.00
2022-10-01T09:17:50.704Z,2.07
2022-10-01T09:20:26.960Z,1.43
2022-10-01T09:23:14.727Z,1.23
2022-10-01T09:25:43.160Z,2.00
2022-10-01T09:28:28.492Z,19.73
2022-10-01T09:31:01.272Z,15.67
2022-10-01T09:33:36.046Z,5.70
2022-10-01T09:36:21.150Z,3.07
2022-10-01T09:39:05.279Z,14.03
2022-10-01T09:41:31.863Z,2.20
2022-10-01T09:43:58.426Z,3.77
2022-10-01T09:46:26.543Z,4.00
2022-10-01T09:48:59.044Z,3.10
2022-10-01T09:51:28.861Z,1.83
2022-10-01T09:54:02.281Z,2.17
2022-10-01T09:56:30.748Z,1.40
2022-10-01T09:59:00.434Z,2.40
2022-10-01T10:01:36.772Z,1.30
2022-10-01T10:04:03.517Z,2.03
2022-10-01T10:06:31.117Z,2.37
2022-10-01T10:08:58.406Z,1.17
2022-10-01T10:11:26.788Z,1.00
2022-10-01T10:13:54.655Z,0.80
2022-10-01T10:16:32.598Z,1.90
2022-10-01T10:19:09.574Z,1.57
2022-10-01T10:21:36.149Z,1.37
2022-10-01T10:24:03.867Z,1.17
2022-10-01T10:26:38.869Z,1.13
2022-10-01T10:29:07.159Z,1.13
2022-10-01T10:31:43.851Z,1.53
2022-10-01T10:34:18.472Z,1.67
2022-10-01T10:36:45.799Z,1.03
2022-10-01T10:39:21.690Z,1.70
2022-10-01T10:41:48.784Z,0.60
2022-10-01T10:44:19.554Z,1.73
2022-10-01T10:46:46.476Z,1.07
2022-10-01T10:49:21.227Z,1.90
2022-10-01T10:51:54.061Z,2.30
2022-10-01T10:54:23.085Z,2.40
2022-10-01T10:57:00.591Z,1.50
2022-10-01T10:59:26.962Z,1.73
2022-10-01T11:01:53.748Z,1.10
2022-10-01T11:04:22.652Z,0.80
2022-10-01T11:06:56.511Z,0.70
2022-10-01T11:09:24.105Z,1.17
2022-10-01T11:11:55.105Z,1.23
2022-10-01T11:14:28.367Z,1.73
2022-10-01T11:16:57.825Z,0.90
2022-10-01T11:19:33.428Z,1.00
2022-10-01T11:22:02.781Z,1.50
2022-10-01T11:24:35.260Z,1.90
2022-10-01T11:27:11.204Z,1.10
2022-10-01T11:29:50.601Z,1.47
2022-10-01T11:32:19.275Z,1.70
2022-10-01T11:34:53.496Z,2.10
2022-10-01T11:37:28.681Z,1.73
2022-10-01T11:39:57.376Z,1.60
2022-10-01T11:42:31.696Z,1.93
2022-10-01T11:45:03.202Z,2.70
2022-10-01T11:47:44.226Z,1.70
2022-10-01T11:50:16.714Z,1.90
2022-10-01T11:53:01.334Z,2.70
2022-10-01T11:55:55.544Z,3.40
2022-10-01T11:58:48.353Z,3.20
2022-10-01T12:01:23.636Z,2.77
2022-10-01T12:03:56.624Z,2.20
2022-10-01T12:06:42.004Z,2.27
2022-10-01T12:09:11.896Z,3.20
2022-10-01T12:11:42.720Z,3.40
2022-10-01T12:14:11.341Z,2.83
2022-10-01T12:16:56.626Z,2.90
2022-10-01T12:19:31.726Z,3.50
2022-10-01T12:22:04.217Z,2.97
2022-10-01T12:24:40.233Z,5.37
2022-10-01T12:27:24.887Z,7.90
2022-10-01T12:30:00.132Z,3.33
2022-10-01T12:32:26.445Z,4.23
2022-10-01T12:34:54.415Z,4.50
2022-10-01T12:37:55.711Z,3.90
2022-10-01T12:40:31.478Z,4.07
2022-10-01T12:43:05.006Z,3.23
2022-10-01T12:45:40.472Z,14.33
2022-10-01T12:48:22.328Z,5.47
2022-10-01T12:50:56.798Z,5.80
2022-10-01T12:53:23.139Z,3.00
2022-10-01T12:55:55.528Z,2.33
2022-10-01T12:58:54.466Z,9.73
2022-10-01T13:01:23.976Z,4.17
2022-10-01T13:03:50.387Z,3.50
2022-10-01T13:06:33.005Z,3.63
2022-10-01T13:09:02.486Z,3.30
2022-10-01T13:11:52.187Z,2.43
2022-10-01T13:14:19.143Z,2.33
2022-10-01T13:17:04.352Z,2.70
2022-10-01T13:19:51.124Z,2.70
2022-10-01T13:22:36.124Z,3.50
2022-10-01T13:25:15.197Z,3.40
2022-10-01T13:27:50.812Z,3.50
2022-10-01T13:30:19.060Z,3.90
2022-10-01T13:32:49.373Z,3.73
2022-10-01T13:35:21.913Z,4.57
2022-10-01T13:37:48.247Z,4.63
2022-10-01T13:40:20.707Z,3.10
2022-10-01T13:42:47.812Z,3.43
2022-10-01T13:45:22.408Z,1.67
2022-10-01T13:47:49.061Z,1.83
2022-10-01T13:50:21.476Z,3.27
2022-10-01T13:52:47.863Z,1.93
2022-10-01T13:55:40.694Z,2.73
2022-10-01T13:58:19.560Z,2.60
2022-10-01T14:00:53.983Z,1.70
2022-10-01T14:03:37.990Z,2.27
2022-10-01T14:06:06.747Z,3.87
2022-10-01T14:08:45.139Z,2.17
2022-10-01T14:11:32.669Z,2.80
2022-10-01T14:14:21.905Z,4.90
2022-10-01T14:16:48.384Z,2.40
2022-10-01T14:19:19.757Z,1.80
2022-10-01T14:21:49.212Z,1.57
2022-10-01T14:24:15.533Z,1.60
2022-10-01T14:26:54.303Z,1.60
2022-10-01T14:29:32.879Z,2.30
2022-10-01T14:32:20.868Z,2.50
2022-10-01T14:35:01.432Z,2.83
2022-10-01T14:37:28.866Z,2.53
2022-10-01T14:40:21.596Z,1.70
2022-10-01T14:43:01.183Z,3.03
2022-10-01T14:45:28.341Z,18.80
2022-10-01T14:48:02.058Z,3.73
2022-10-01T14:50:30.299Z,6.87
2022-10-01T14:52:58.419Z,5.10
2022-10-01T14:55:25.508Z,6.13
2022-10-01T14:57:55.479Z,3.43
2022-10-01T15:00:23.174Z,3.00
2022-10-01T15:02:51.469Z,4.67
2022-10-01T15:05:20.725Z,3.73
2022-10-01T15:07:47.379Z,3.27
2022-10-01T15:10:16.560Z,4.00
2022-10-01T15:12:50.046Z,2.50
2022-10-01T15:15:21.009Z,5.30
2022-10-01T15:17:48.149Z,4.33
2022-10-01T15:20:14.584Z,4.50
2022-10-01T15:22:42.397Z,4.57
2022-10-01T15:25:16.365Z,4.17
2022-10-01T15:27:42.755Z,5.87
2022-10-01T15:30:13.595Z,7.20
2022-10-01T15:32:40.202Z,6.33
2022-10-01T15:35:07.283Z,4.97
2022-10-01T15:37:34.846Z,4.50
2022-10-01T15:40:01.587Z,5.07
2022-10-01T15:42:31.127Z,10.10
2022-10-01T15:45:06.605Z,5.43
2022-10-01T15:47:34.056Z,13.97
2022-10-01T15:50:09.761Z,8.80
2022-10-01T15:52:51.983Z,6.43
2022-10-01T15:55:21.575Z,9.23
2022-10-01T15:57:54.673Z,12.77
2022-10-01T16:00:22.505Z,6.13
2022-10-01T16:02:49.146Z,5.63
2022-10-01T16:05:17.492Z,7.73
2022-10-01T16:07:46.608Z,5.83
2022-10-01T16:10:32.154Z,9.20
2022-10-01T16:12:59.086Z,5.33
2022-10-01T16:15:29.493Z,4.53
2022-10-01T16:17:59.871Z,6.30
2022-10-01T16:20:39.783Z,4.43
2022-10-01T16:23:24.976Z,5.87
2022-10-01T16:25:51.300Z,4.67
2022-10-01T16:28:35.952Z,6.37
2022-10-01T16:31:04.251Z,4.17
2022-10-01T16:33:30.719Z,5.83
2022-10-01T16:36:10.772Z,3.87
2022-10-01T16:38:37.196Z,4.60
2022-10-01T16:41:05.413Z,6.70
2022-10-01T16:43:32.945Z,7.83
2022-10-01T16:45:59.453Z,5.73
2022-10-01T16:48:25.968Z,6.40
2022-10-01T16:50:58.847Z,4.40
2022-10-01T16:53:25.983Z,6.50
2022-10-01T16:55:52.671Z,6.00
2022-10-01T16:58:20.093Z,4.87
2022-10-01T17:00:46.518Z,5.70
2022-10-01T17:03:20.699Z,6.37
2022-10-01T17:05:47.095Z,7.13
2022-10-01T17:08:14.609Z,5.43
2022-10-01T17:10:48.429Z,8.60
2022-10-01T17:13:15.442Z,5.57
2022-10-01T17:15:42.197Z,4.30
2022-10-01T17:18:12.107Z,6.47
2022-10-01T17:20:38.539Z,5.97
2022-10-01T17:23:05.321Z,6.13
2022-10-01T17:25:34.198Z,5.37
2022-10-01T17:28:02.332Z,6.03
2022-10-01T17:30:29.289Z,7.37
2022-10-01T17:32:59.930Z,13.20
2022-10-01T17:35:26.915Z,5.53
2022-10-01T17:37:53.304Z,7.83
2022-10-01T17:40:19.687Z,8.63
2022-10-01T17:42:46.024Z,7.83
2022-10-01T17:45:13.342Z,6.17
2022-10-01T17:47:43.731Z,6.57
2022-10-01T17:50:10.283Z,8.50
2022-10-01T17:52:36.623Z,7.73
2022-10-01T17:55:03.023Z,8.23
2022-10-01T17:57:29.362Z,9.50
2022-10-01T17:59:55.705Z,15.67
2022-10-01T18:02:40.976Z,11.90
2022-10-01T18:05:09.513Z,11.70
2022-10-01T18:07:38.971Z,9.23
2022-10-01T18:10:06.308Z,7.87
2022-10-01T18:12:33.709Z,10.73
2022-10-01T18:15:00.808Z,12.30
2022-10-01T18:17:27.531Z,16.63
2022-10-01T18:19:54.412Z,10.07
2022-10-01T18:22:21.151Z,10.37
2022-10-01T18:24:47.600Z,19.97
2022-10-01T18:27:14.037Z,9.67
2022-10-01T18:29:40.492Z,12.97
2022-10-01T18:32:13.127Z,9.73
2022-10-01T18:34:39.512Z,8.83
2022-10-01T18:37:07.316Z,17.93
2022-10-01T18:39:39.879Z,10.17
2022-10-01T18:42:13.580Z,13.03
2022-10-01T18:44:39.968Z,14.80
2022-10-01T18:47:13.843Z,11.33
2022-10-01T18:49:46.340Z,11.03
2022-10-01T18:52:19.876Z,9.87
2022-10-01T18:54:55.359Z,10.43
2022-10-01T18:57:21.703Z,9.67
2022-10-01T19:00:08.565Z,10.57
2022-10-01T19:02:53.362Z,10.67
2022-10-01T19:05:26.775Z,8.90
2022-10-01T19:08:20.734Z,8.73
2022-10-01T19:10:47.069Z,9.80
2022-10-01T19:13:20.427Z,5.93
2022-10-01T19:15:49.703Z,11.80
2022-10-01T19:18:18.833Z,9.77
2022-10-01T19:20:52.661Z,15.07
2022-10-01T19:23:31.287Z,11.10
2022-10-01T19:25:57.718Z,10.07
2022-10-01T19:28:30.137Z,10.50
2022-10-01T19:30:59.376Z,11.40
2022-10-01T19:33:26.155Z,12.37
2022-10-01T19:35:56.123Z,9.47
2022-10-01T19:38:25.547Z,9.00
2022-10-01T19:41:10.603Z,9.60
2022-10-01T19:43:43.107Z,17.13
2022-10-01T19:46:15.129Z,6.97
2022-10-01T19:48:41.569Z,12.37
2022-10-01T19:51:10.153Z,12.67
2022-10-01T19:53:39.398Z,12.93
2022-10-01T19:56:07.277Z,10.50
2022-10-01T19:58:34.104Z,13.60
2022-10-01T20:01:01.995Z,15.60
2022-10-01T20:03:42.356Z,15.20
2022-10-01T20:06:13.862Z,10.63
2022-10-01T20:08:46.130Z,11.23
2022-10-01T20:11:17.088Z,13.50
2022-10-01T20:13:55.531Z,12.63
2022-10-01T20:16:25.684Z,12.30
2022-10-01T20:18:57.002Z,13.70
2022-10-01T20:21:34.542Z,13.00
2022-10-01T20:24:07.363Z,11.87
2022-10-01T20:26:33.941Z,11.07
2022-10-01T20:29:06.762Z,8.83
2022-10-01T20:31:59.483Z,14.60
2022-10-01T20:34:44.765Z,16.37
2022-10-01T20:37:34.727Z,11.20
2022-10-01T20:40:11.363Z,15.67
2022-10-01T20:42:39.006Z,13.93
2022-10-01T20:45:06.897Z,12.47
2022-10-01T20:47:40.242Z,10.33
2022-10-01T20:50:12.033Z,12.03
2022-10-01T20:52:47.271Z,14.23
2022-10-01T20:55:15.623Z,10.23
2022-10-01T20:57:46.072Z,10.90
2022-10-01T21:00:20.959Z,9.80
2022-10-01T21:03:02.656Z,12.63
2022-10-01T21:05:32.805Z,11.90
2022-10-01T21:08:05.148Z,14.23
2022-10-01T21:10:34.523Z,16.90
2022-10-01T21:13:06.504Z,13.03
2022-10-01T21:15:47.733Z,14.10
2022-10-01T21:18:22.451Z,16.53
2022-10-01T21:21:01.098Z,14.13
2022-10-01T21:23:30.449Z,16.47
2022-10-01T21:25:57.032Z,12.87
2022-10-01T21:28:32.229Z,18.27
2022-10-01T21:31:15.445Z,13.60
2022-10-01T21:33:51.941Z,9.90
2022-10-01T21:36:30.701Z,15.43
2022-10-01T21:39:05.786Z,12.47
2022-10-01T21:41:53.611Z,13.13
2022-10-01T21:44:25.787Z,12.90
2022-10-01T21:47:00.172Z,10.37
2022-10-01T21:49:37.245Z,13.60
2022-10-01T21:52:10.739Z,15.37
2022-10-01T21:54:55.945Z,12.53
2022-10-01T21:57:22.281Z,9.87
2022-10-01T21:59:48.620Z,13.03
2022-10-01T22:02:35.407Z,11.17
2022-10-01T22:05:22.627Z,9.63
2022-10-01T22:07:48.954Z,7.33
2022-10-01T22:10:28.149Z,10.67
2022-10-01T22:12:58.789Z,10.23
2022-10-01T22:15:28.292Z,14.83
2022-10-01T22:17:56.510Z,9.13
2022-10-01T22:20:26.720Z,8.53
2022-10-01T22:22:56.494Z,9.20
2022-10-01T22:25:22.919Z,10.57
2022-10-01T22:28:07.377Z,7.83
2022-10-01T22:30:34.889Z,10.53
2022-10-01T22:33:05.947Z,9.33
2022-10-01T22:35:32.283Z,9.37
2022-10-01T22:38:06.993Z,10.50
2022-10-01T22:40:35.988Z,12.97
2022-10-01T22:43:08.233Z,10.47
2022-10-01T22:45:48.753Z,10.27
2022-10-01T22:48:34.084Z,9.37
2022-10-01T22:51:03.418Z,12.53
2022-10-01T22:53:37.495Z,8.87
2022-10-01T22:56:03.839Z,9.23
2022-10-01T22:58:48.865Z,9.63
2022-10-01T23:01:24.972Z,9.53
2022-10-01T23:04:00.620Z,7.97
2022-10-01T23:06:43.237Z,11.87
2022-10-01T23:09:09.552Z,7.60
2022-10-01T23:11:38.732Z,9.00
2022-10-01T23:14:24.008Z,10.23
2022-10-01T23:16:55.666Z,8.90
2022-10-01T23:19:22.027Z,10.77
2022-10-01T23:21:52.906Z,4.77
2022-10-01T23:24:26.779Z,14.33
2022-10-01T23:27:00.132Z,7.67
2022-10-01T23:29:49.022Z,9.97
2022-10-01T23:32:24.566Z,8.57
2022-10-01T23:35:02.854Z,9.43
2022-10-01T23:37:50.247Z,13.10
2022-10-01T23:40:17.898Z,10.07
2022-10-01T23:42:58.727Z,10.77
2022-10-01T23:45:30.969Z,7.23
2022-10-01T23:48:03.315Z,6.50
2022-10-01T23:50:55.890Z,9.53
2022-10-01T23:53:28.203Z,9.83
2022-10-01T23:56:21.155Z,12.27
2022-10-01T23:58:54.404Z,14.40
